San Antonio, Texas
Traffic Map
Current Weather Conditions
San Antonio, Texas
Broken Clouds
Broken Clouds
73°
Feels Like: 73°
Wind Chill: 73° Ceiling: 1900
Heat Index: 73° Visibility: 10mi
Dew Point: 64° Wind: 9mph
Humidity: 73% Direction: 40° (NE)
Pressure: 30.09in Gusts: 0mph
Raw Report DataKSKF 271526Z AUTO 04008KT 10SM BKN019 23/18 A3009 RMK AO2
Traffic Incident Summary
Active as of:
Severity:
Category:
InformationThere was an issue retrieving the traffic information for this location. Please try a different location or try again shortly.
Advertisements
Track Severe Weather on mobile